Time;durP1;ratioP1;P1;durP2;ratioP2;P2;SDS_P1;SDS_P2;PMS_P1;PMS_P2;Temp;Humidity;BMP_temperature;BMP_pressure;BME280_temperature;BME280_humidity;BME280_pressure;Samples;Min_cycle;Max_cycle;Signal;HPM_P1;HPM_P2
2021/09/05 00:00:33;;;;;;;20.93;15.50;;;10.90;99.90;;;;;;5112736;28;20812;-84
2021/09/05 00:02:59;;;;;;;18.63;14.83;;;10.90;99.90;;;;;;5094722;28;20998;-83
2021/09/05 00:05:25;;;;;;;18.83;14.87;;;10.90;99.90;;;;;;5095821;28;20375;-85
2021/09/05 00:07:50;;;;;;;16.80;13.82;;;10.90;99.90;;;;;;5114013;28;20767;-85
2021/09/05 00:10:16;;;;;;;18.85;14.85;;;10.90;99.90;;;;;;5114153;28;20429;-83
2021/09/05 00:12:42;;;;;;;19.37;14.23;;;10.90;99.90;;;;;;5113755;28;20800;-85
2021/09/05 00:15:09;;;;;;;18.98;15.20;;;10.90;99.90;;;;;;5113973;28;20366;-84
2021/09/05 00:17:36;;;;;;;20.63;14.50;;;10.90;99.90;;;;;;5113938;28;20485;-84
2021/09/05 00:20:02;;;;;;;18.92;14.63;;;10.90;99.90;;;;;;5113842;28;20398;-84
2021/09/05 00:22:27;;;;;;;19.90;15.27;;;10.90;99.90;;;;;;5113991;28;20420;-85
2021/09/05 00:24:53;;;;;;;20.20;14.77;;;10.80;99.90;;;;;;5095492;28;20414;-85
2021/09/05 00:27:19;;;;;;;20.45;14.30;;;10.80;99.90;;;;;;5113648;28;20792;-85
2021/09/05 00:29:44;;;;;;;19.55;13.77;;;10.80;99.90;;;;;;5095536;28;20383;-84
2021/09/05 00:32:10;;;;;;;18.67;13.53;;;10.70;99.90;;;;;;5114018;28;20427;-83
2021/09/05 00:34:35;;;;;;;18.38;13.77;;;10.70;99.90;;;;;;5095660;28;20867;-81
2021/09/05 00:37:01;;;;;;;19.52;14.40;;;10.60;99.90;;;;;;5094932;28;20382;-83
2021/09/05 00:39:27;;;;;;;19.07;13.83;;;10.60;99.90;;;;;;5113990;28;20391;-83
2021/09/05 00:41:52;;;;;;;15.70;12.80;;;10.50;99.90;;;;;;5095200;28;20986;-84
2021/09/05 00:44:18;;;;;;;16.60;13.30;;;10.50;99.90;;;;;;5113645;28;20363;-86
2021/09/05 00:46:44;;;;;;;18.37;14.47;;;10.50;99.90;;;;;;5113221;28;20792;-86
2021/09/05 00:49:10;;;;;;;17.33;13.43;;;10.50;99.90;;;;;;5095133;28;20379;-85
2021/09/05 00:51:41;;;;;;;32.03;16.58;;;10.50;99.90;;;;;;5113466;28;20448;-86
2021/09/05 00:54:09;;;;;;;22.90;14.52;;;10.50;99.90;;;;;;5113317;28;20374;-86
2021/09/05 00:56:37;;;;;;;23.02;15.13;;;10.50;99.90;;;;;;5094963;28;20374;-82
2021/09/05 00:59:10;;;;;;;20.23;13.38;;;10.60;99.90;;;;;;5095259;28;20399;-84
2021/09/05 01:01:39;;;;;;;19.40;14.25;;;10.60;99.90;;;;;;5112453;28;20392;-85
2021/09/05 01:04:05;;;;;;;18.07;12.93;;;10.60;99.90;;;;;;5094995;28;20908;-83
2021/09/05 01:06:33;;;;;;;17.98;12.88;;;10.50;99.90;;;;;;5113118;28;20413;-82
2021/09/05 01:09:00;;;;;;;18.83;13.10;;;10.50;99.90;;;;;;5112905;28;20375;-82
2021/09/05 01:11:25;;;;;;;18.15;13.23;;;10.50;99.90;;;;;;5094648;28;20386;-84
2021/09/05 01:13:51;;;;;;;21.52;13.57;;;10.40;99.90;;;;;;5094997;28;20733;-86
2021/09/05 01:16:31;;;;;;;17.10;12.88;;;10.40;99.90;;;;;;5094897;28;20460;-83
2021/09/05 01:19:11;;;;;;;17.10;12.55;;;10.40;99.90;;;;;;5094471;28;20953;-84
2021/09/05 01:21:38;;;;;;;15.80;13.00;;;10.40;99.90;;;;;;5112901;28;20733;-85
2021/09/05 01:24:05;;;;;;;19.67;13.10;;;10.40;99.90;;;;;;5094413;28;20379;-85
2021/09/05 01:26:34;;;;;;;15.88;11.82;;;10.40;99.90;;;;;;5113181;28;20460;-85
2021/09/05 01:29:00;;;;;;;16.92;12.00;;;10.50;99.90;;;;;;5112996;28;20363;-87
2021/09/05 01:31:44;;;;;;;13.45;11.60;;;10.50;99.90;;;;;;5094735;28;20403;-86
2021/09/05 01:34:11;;;;;;;14.77;11.20;;;10.40;99.90;;;;;;5094225;28;20378;-84
2021/09/05 01:36:38;;;;;;;13.13;10.52;;;10.40;99.90;;;;;;5112565;28;20375;-85
2021/09/05 01:39:05;;;;;;;13.55;11.32;;;10.40;99.90;;;;;;5094485;28;20399;-85
2021/09/05 01:41:31;;;;;;;14.38;11.23;;;10.30;99.90;;;;;;5093878;28;20374;-85
2021/09/05 01:44:00;;;;;;;13.48;10.90;;;10.30;99.90;;;;;;5112540;28;20397;-83
2021/09/05 01:46:26;;;;;;;14.85;11.38;;;10.30;99.90;;;;;;5112320;28;20383;-86
2021/09/05 01:48:51;;;;;;;15.00;11.48;;;10.20;99.90;;;;;;5094266;28;20421;-86
2021/09/05 01:51:17;;;;;;;14.38;11.73;;;10.20;99.90;;;;;;5093661;28;20715;-83
2021/09/05 01:53:44;;;;;;;14.40;11.10;;;10.10;99.90;;;;;;5112448;28;20876;-85
2021/09/05 01:56:09;;;;;;;13.88;10.77;;;10.10;99.90;;;;;;5112552;28;20475;-86
2021/09/05 01:58:35;;;;;;;15.33;11.93;;;10.10;99.90;;;;;;5112031;28;20370;-85
2021/09/05 02:01:00;;;;;;;15.27;11.52;;;10.10;99.90;;;;;;5093991;28;20436;-84
2021/09/05 02:03:26;;;;;;;16.33;11.83;;;10.00;99.90;;;;;;5112274;28;20985;-85
2021/09/05 02:05:52;;;;;;;14.97;11.43;;;10.00;99.90;;;;;;5112356;28;20374;-83
2021/09/05 02:08:17;;;;;;;18.55;11.95;;;10.00;99.90;;;;;;5093678;28;20383;-84
2021/09/05 02:10:43;;;;;;;23.58;12.95;;;10.00;99.90;;;;;;5093936;28;20450;-86
2021/09/05 02:13:10;;;;;;;26.23;14.53;;;10.00;99.90;;;;;;5112225;28;20470;-87
2021/09/05 02:15:35;;;;;;;19.45;12.50;;;10.00;99.90;;;;;;5093614;28;20383;-84
2021/09/05 02:18:01;;;;;;;31.65;15.73;;;10.10;99.90;;;;;;5093853;28;20371;-85
2021/09/05 02:20:27;;;;;;;30.23;15.50;;;10.10;99.90;;;;;;5111942;28;20398;-86
2021/09/05 02:22:52;;;;;;;24.30;13.88;;;10.20;99.90;;;;;;5111989;28;20394;-86
2021/09/05 02:25:18;;;;;;;35.60;15.53;;;10.10;99.90;;;;;;5112133;28;20370;-84
2021/09/05 02:27:44;;;;;;;30.73;16.85;;;10.10;99.90;;;;;;5111668;28;20371;-87
2021/09/05 02:30:10;;;;;;;26.75;15.75;;;10.10;99.90;;;;;;5112334;28;20793;-87
2021/09/05 02:32:37;;;;;;;29.77;15.20;;;10.10;99.90;;;;;;5112057;28;20872;-86
2021/09/05 02:35:06;;;;;;;26.08;15.05;;;10.10;99.90;;;;;;5096941;28;20733;-85
2021/09/05 02:37:32;;;;;;;29.42;16.80;;;10.00;99.90;;;;;;5113168;28;20410;-84
2021/09/05 02:39:58;;;;;;;28.90;16.35;;;10.00;99.90;;;;;;5093705;28;20459;-86
2021/09/05 02:42:24;;;;;;;37.13;18.07;;;10.00;99.90;;;;;;5093605;28;20375;-87
2021/09/05 02:44:49;;;;;;;32.17;17.47;;;9.90;99.90;;;;;;5093453;28;20960;-87
2021/09/05 02:47:15;;;;;;;28.60;16.50;;;9.90;99.90;;;;;;5093199;28;20416;-84
2021/09/05 02:49:41;;;;;;;31.63;17.17;;;9.90;99.90;;;;;;5111404;28;20405;-84
2021/09/05 02:52:09;;;;;;;24.23;16.27;;;9.90;99.90;;;;;;5111582;28;20436;-88
2021/09/05 02:54:36;;;;;;;29.35;17.65;;;9.80;99.90;;;;;;5093604;28;20432;-87
2021/09/05 02:57:02;;;;;;;33.63;18.40;;;9.80;99.90;;;;;;5093259;28;20485;-82
2021/09/05 02:59:28;;;;;;;24.43;15.80;;;9.80;99.90;;;;;;5112642;28;20489;-84
2021/09/05 03:01:53;;;;;;;22.40;15.43;;;9.70;99.90;;;;;;5112779;28;20799;-85
2021/09/05 03:04:19;;;;;;;25.00;16.33;;;9.70;99.90;;;;;;5092642;28;20366;-83
2021/09/05 03:06:44;;;;;;;26.53;16.10;;;9.80;99.90;;;;;;5093427;28;20386;-83
2021/09/05 03:09:10;;;;;;;28.50;18.35;;;9.80;99.90;;;;;;5093716;28;20428;-84
2021/09/05 03:11:37;;;;;;;30.75;19.10;;;9.80;99.90;;;;;;5112337;28;20394;-85
2021/09/05 03:14:02;;;;;;;27.57;18.53;;;9.90;99.90;;;;;;5111313;28;20414;-85
2021/09/05 03:16:28;;;;;;;24.33;16.67;;;10.00;99.90;;;;;;5093054;28;20371;-86
2021/09/05 03:18:53;;;;;;;23.48;17.00;;;10.10;99.90;;;;;;5093721;28;20402;-84
2021/09/05 03:21:19;;;;;;;30.80;18.33;;;10.20;99.90;;;;;;5093253;28;20371;-86
2021/09/05 03:23:44;;;;;;;25.57;17.57;;;10.30;99.90;;;;;;5111146;28;20473;-87
2021/09/05 03:26:10;;;;;;;23.63;16.77;;;10.40;99.90;;;;;;5093436;28;20379;-83
2021/09/05 03:28:36;;;;;;;31.70;20.27;;;10.60;99.90;;;;;;5113060;28;20394;-85
2021/09/05 03:31:01;;;;;;;24.80;18.02;;;10.70;99.90;;;;;;5093422;28;20934;-87
2021/09/05 03:33:27;;;;;;;24.17;16.70;;;10.80;99.90;;;;;;5093247;28;20367;-86
2021/09/05 03:35:52;;;;;;;25.70;17.93;;;11.00;99.90;;;;;;5093893;28;20872;-85
2021/09/05 03:38:18;;;;;;;25.42;17.77;;;11.00;99.90;;;;;;5093345;28;20363;-85
2021/09/05 03:40:43;;;;;;;24.93;16.90;;;11.20;99.90;;;;;;5110995;28;20402;-88
2021/09/05 03:43:11;;;;;;;33.00;20.60;;;11.30;99.90;;;;;;5111030;28;20390;-85
2021/09/05 03:45:37;;;;;;;44.65;25.98;;;11.40;99.90;;;;;;5092771;28;20382;-86
2021/09/05 03:48:03;;;;;;;51.07;26.97;;;11.50;99.90;;;;;;5093620;28;20382;-83
2021/09/05 03:50:28;;;;;;;71.93;35.90;;;11.60;99.90;;;;;;5094843;28;20377;-85
2021/09/05 03:52:54;;;;;;;69.90;34.80;;;11.80;99.90;;;;;;5095438;28;21176;-87
2021/09/05 03:55:19;;;;;;;79.77;36.23;;;11.90;99.90;;;;;;5112008;28;20741;-87
2021/09/05 03:57:45;;;;;;;92.77;39.10;;;12.00;99.90;;;;;;5112185;28;20370;-83
2021/09/05 04:00:11;;;;;;;96.43;41.50;;;12.10;99.90;;;;;;5094165;28;20398;-84
2021/09/05 04:02:37;;;;;;;88.35;39.17;;;12.10;99.90;;;;;;5112309;28;20485;-84
2021/09/05 04:05:03;;;;;;;89.13;39.67;;;12.20;99.90;;;;;;5096142;28;20374;-86
2021/09/05 04:07:31;;;;;;;110.53;44.33;;;12.30;99.90;;;;;;5113883;28;20371;-84
2021/09/05 04:10:09;;;;;;;107.40;42.67;;;12.20;99.90;;;;;;5111700;28;20853;-84
2021/09/05 04:12:40;;;;;;;108.32;42.05;;;12.30;99.90;;;;;;5095564;28;20510;-85
2021/09/05 04:15:07;;;;;;;117.13;46.35;;;12.40;99.90;;;;;;5114749;28;20450;-84
2021/09/05 04:17:32;;;;;;;95.00;43.30;;;12.30;99.90;;;;;;5116937;28;20363;-86
2021/09/05 04:19:58;;;;;;;105.00;43.63;;;12.40;99.90;;;;;;5098854;28;20424;-85
2021/09/05 04:22:24;;;;;;;77.93;39.00;;;12.50;99.90;;;;;;5116634;28;20740;-84
2021/09/05 04:24:50;;;;;;;80.78;40.50;;;12.60;99.90;;;;;;5116330;28;20377;-87
2021/09/05 04:27:16;;;;;;;83.77;39.73;;;12.70;99.90;;;;;;5098608;28;20479;-83
2021/09/05 04:29:42;;;;;;;92.07;41.08;;;12.80;99.90;;;;;;5097226;28;20883;-86
2021/09/05 04:32:08;;;;;;;69.30;37.53;;;12.80;99.90;;;;;;5116473;28;20371;-84
2021/09/05 04:34:34;;;;;;;85.35;40.75;;;12.90;99.90;;;;;;5114682;28;20432;-83
2021/09/05 04:36:59;;;;;;;87.80;42.80;;;12.90;99.90;;;;;;5115710;28;20370;-84
2021/09/05 04:39:25;;;;;;;92.50;41.43;;;13.00;99.90;;;;;;5096777;28;20398;-84
2021/09/05 04:41:51;;;;;;;84.35;41.28;;;13.00;99.90;;;;;;5115073;28;20693;-85
2021/09/05 04:44:17;;;;;;;78.28;38.83;;;13.00;99.90;;;;;;5115180;28;20407;-83
2021/09/05 04:46:43;;;;;;;107.35;45.38;;;13.10;99.90;;;;;;5115498;28;20375;-84
2021/09/05 04:49:09;;;;;;;75.50;38.28;;;13.20;99.90;;;;;;5096856;28;20386;-83
2021/09/05 04:51:35;;;;;;;69.35;37.50;;;13.30;99.90;;;;;;5095637;28;20402;-85
2021/09/05 04:54:01;;;;;;;77.78;39.72;;;13.30;99.90;;;;;;5114936;28;20824;-87
2021/09/05 04:56:26;;;;;;;76.25;39.25;;;13.40;99.90;;;;;;5120608;28;20374;-83
2021/09/05 04:58:52;;;;;;;77.93;39.07;;;13.50;99.90;;;;;;5101233;28;20399;-86
2021/09/05 05:01:18;;;;;;;78.10;38.40;;;13.50;99.90;;;;;;5114001;28;20375;-82
2021/09/05 05:03:43;;;;;;;77.53;39.22;;;13.50;99.90;;;;;;5096986;28;20370;-85
2021/09/05 05:06:09;;;;;;;82.20;39.20;;;13.60;99.90;;;;;;5115060;28;20483;-87
2021/09/05 05:08:35;;;;;;;84.72;42.20;;;13.60;99.90;;;;;;5113813;28;20478;-84
2021/09/05 05:11:01;;;;;;;73.53;37.45;;;13.70;99.90;;;;;;5115302;28;20375;-83
2021/09/05 05:13:27;;;;;;;86.90;40.10;;;13.70;99.90;;;;;;5114695;28;20378;-86
2021/09/05 05:15:55;;;;;;;74.50;38.97;;;13.70;99.90;;;;;;5114074;28;20406;-84
2021/09/05 05:18:21;;;;;;;66.63;37.03;;;13.80;99.90;;;;;;5115299;28;20454;-85
2021/09/05 05:20:47;;;;;;;74.28;37.10;;;13.80;99.90;;;;;;5114144;28;20394;-83
2021/09/05 05:23:12;;;;;;;68.87;36.60;;;13.80;99.90;;;;;;5095504;28;20382;-83
2021/09/05 05:25:38;;;;;;;69.87;37.53;;;13.80;99.90;;;;;;5095302;28;20371;-83
2021/09/05 05:28:03;;;;;;;69.40;38.28;;;14.00;99.90;;;;;;5114393;28;20367;-83
2021/09/05 05:30:29;;;;;;;74.90;41.57;;;13.90;99.90;;;;;;5095919;28;20889;-84
2021/09/05 05:32:58;;;;;;;66.97;40.88;;;13.90;99.90;;;;;;5114377;28;20813;-85
2021/09/05 05:35:24;;;;;;;69.57;40.23;;;13.90;99.90;;;;;;5095514;28;20391;-85
2021/09/05 05:37:50;;;;;;;61.03;38.58;;;13.90;99.90;;;;;;5115290;28;20375;-86
2021/09/05 05:40:16;;;;;;;64.33;38.67;;;13.90;99.90;;;;;;5113663;28;20394;-85
2021/09/05 05:42:41;;;;;;;68.53;41.97;;;13.90;99.90;;;;;;5114488;28;20382;-85
2021/09/05 05:45:07;;;;;;;58.00;40.03;;;14.00;99.90;;;;;;5114161;28;20821;-84
2021/09/05 05:47:33;;;;;;;58.97;38.78;;;14.00;99.90;;;;;;5097405;28;20379;-85
2021/09/05 05:49:59;;;;;;;63.95;42.63;;;14.00;99.90;;;;;;5096403;28;20776;-87
2021/09/05 05:52:24;;;;;;;60.08;40.55;;;13.90;99.90;;;;;;5114063;28;20375;-85
2021/09/05 05:54:50;;;;;;;61.47;40.47;;;13.90;99.90;;;;;;5096737;28;20477;-85
2021/09/05 05:57:16;;;;;;;54.50;39.45;;;14.00;99.90;;;;;;5113812;28;20402;-86
2021/09/05 05:59:41;;;;;;;49.73;37.13;;;14.00;99.90;;;;;;5094738;28;20434;-84
2021/09/05 06:02:07;;;;;;;49.87;37.03;;;13.90;99.90;;;;;;5098792;28;20385;-83
2021/09/05 06:04:33;;;;;;;49.00;35.38;;;14.10;99.90;;;;;;5113066;28;20383;-82
2021/09/05 06:06:59;;;;;;;43.23;34.17;;;14.20;99.90;;;;;;5114574;28;20381;-84
2021/09/05 06:09:24;;;;;;;46.53;33.73;;;14.20;99.90;;;;;;5113034;28;20374;-83
2021/09/05 06:11:50;;;;;;;45.67;34.00;;;14.20;99.90;;;;;;5113053;28;20400;-84
2021/09/05 06:14:16;;;;;;;43.08;32.20;;;14.40;99.90;;;;;;5094603;28;20375;-86
2021/09/05 06:16:41;;;;;;;40.30;30.40;;;14.50;99.90;;;;;;5093998;28;20367;-83
2021/09/05 06:19:07;;;;;;;38.97;30.58;;;14.50;99.90;;;;;;5112755;28;20463;-85
2021/09/05 06:21:32;;;;;;;39.10;29.95;;;14.60;99.90;;;;;;5094848;28;20370;-84
2021/09/05 06:23:59;;;;;;;34.70;27.97;;;14.70;99.90;;;;;;5095436;28;20910;-82
2021/09/05 06:26:24;;;;;;;33.00;26.40;;;14.80;99.90;;;;;;5093573;28;20382;-82
2021/09/05 06:28:50;;;;;;;32.42;25.80;;;14.90;99.90;;;;;;5093776;28;20396;-83
2021/09/05 06:31:16;;;;;;;32.75;25.63;;;15.10;99.90;;;;;;5112652;28;20856;-86
2021/09/05 06:33:42;;;;;;;32.77;24.43;;;15.20;99.90;;;;;;5112495;28;20451;-83
2021/09/05 06:36:09;;;;;;;29.10;23.88;;;15.40;99.90;;;;;;5093636;28;20371;-84
2021/09/05 06:38:35;;;;;;;28.63;24.30;;;15.60;99.90;;;;;;5111156;28;20375;-84
2021/09/05 06:41:03;;;;;;;27.65;23.08;;;15.80;99.90;;;;;;5111844;28;20362;-84
2021/09/05 06:43:28;;;;;;;25.70;22.10;;;15.90;99.90;;;;;;5094788;28;20386;-85
2021/09/05 06:45:57;;;;;;;29.27;24.05;;;16.10;99.90;;;;;;5112055;28;20383;-84
2021/09/05 06:48:23;;;;;;;30.25;22.17;;;16.10;99.90;;;;;;5094323;28;20467;-83
2021/09/05 06:50:48;;;;;;;28.63;22.58;;;16.10;99.90;;;;;;5111660;28;20363;-83
2021/09/05 06:53:14;;;;;;;30.30;22.83;;;16.20;99.90;;;;;;5112310;28;20489;-83
2021/09/05 06:55:39;;;;;;;31.98;23.63;;;16.20;99.90;;;;;;5094669;28;20397;-84
2021/09/05 06:58:05;;;;;;;27.70;22.97;;;16.20;99.90;;;;;;5111743;28;20453;-83
2021/09/05 07:00:31;;;;;;;29.42;22.17;;;16.40;99.90;;;;;;5111112;28;20398;-84
2021/09/05 07:02:56;;;;;;;25.30;21.07;;;16.60;99.90;;;;;;5111136;28;20379;-82
2021/09/05 07:05:22;;;;;;;26.85;19.85;;;16.80;99.90;;;;;;5111129;28;20486;-82
2021/09/05 07:07:47;;;;;;;31.70;20.27;;;17.00;99.90;;;;;;5110802;28;20856;-83
2021/09/05 07:10:13;;;;;;;25.60;19.88;;;17.30;99.90;;;;;;5093560;28;20453;-82
2021/09/05 07:12:39;;;;;;;23.33;19.33;;;17.50;99.90;;;;;;5094290;28;20369;-84
2021/09/05 07:15:05;;;;;;;23.25;18.80;;;17.60;99.90;;;;;;5112173;28;20860;-82
2021/09/05 07:17:31;;;;;;;25.08;18.75;;;17.70;99.90;;;;;;5111276;28;20379;-84
2021/09/05 07:19:56;;;;;;;21.15;17.42;;;18.00;99.90;;;;;;5092998;28;20528;-84
2021/09/05 07:22:22;;;;;;;19.83;16.93;;;18.10;99.90;;;;;;5093131;28;20379;-81
2021/09/05 07:24:49;;;;;;;25.25;17.90;;;18.30;99.90;;;;;;5093370;28;20369;-83
2021/09/05 07:27:15;;;;;;;22.17;17.88;;;18.50;99.90;;;;;;5086167;28;20371;-84
2021/09/05 07:29:40;;;;;;;23.10;17.73;;;18.50;99.90;;;;;;5110671;28;20748;-84
2021/09/05 07:32:12;;;;;;;20.13;17.45;;;18.60;99.90;;;;;;5096950;28;20361;-84
2021/09/05 07:34:38;;;;;;;23.13;18.30;;;18.50;99.90;;;;;;5131494;28;20848;-88
2021/09/05 07:37:03;;;;;;;20.83;17.92;;;18.50;99.90;;;;;;5105289;28;20388;-83
2021/09/05 07:39:31;;;;;;;21.37;17.03;;;18.50;99.90;;;;;;5072413;28;20393;-82
2021/09/05 07:41:57;;;;;;;23.52;18.95;;;18.60;99.90;;;;;;5091177;28;20368;-86
2021/09/05 07:44:22;;;;;;;21.37;17.60;;;18.70;99.90;;;;;;5073366;28;20373;-83
2021/09/05 07:46:48;;;;;;;21.85;17.80;;;18.60;99.90;;;;;;5090231;28;20460;-83
2021/09/05 07:49:14;;;;;;;21.63;17.87;;;18.60;99.90;;;;;;5073234;28;20406;-83
2021/09/05 07:51:40;;;;;;;21.48;18.08;;;18.60;99.90;;;;;;5095089;28;20383;-83
2021/09/05 07:54:05;;;;;;;22.00;17.60;;;18.50;99.90;;;;;;5096477;28;20369;-85
2021/09/05 07:56:31;;;;;;;18.77;16.30;;;18.50;99.90;;;;;;5075861;28;20368;-84
2021/09/05 07:58:57;;;;;;;22.57;16.70;;;18.60;99.90;;;;;;5094164;28;20407;-85
2021/09/05 08:01:22;;;;;;;22.58;16.88;;;18.70;99.90;;;;;;5077544;28;20372;-84
2021/09/05 08:03:51;;;;;;;19.90;16.50;;;18.80;99.90;;;;;;5108533;27;20477;-84
2021/09/05 08:06:16;;;;;;;20.67;17.20;;;18.90;99.90;;;;;;5114679;28;20381;-85
2021/09/05 08:08:42;;;;;;;20.13;16.25;;;19.10;99.90;;;;;;5096477;28;20446;-83
2021/09/05 08:11:07;;;;;;;18.30;14.80;;;19.10;99.90;;;;;;5114503;28;20932;-83
2021/09/05 08:13:33;;;;;;;22.25;16.58;;;19.30;99.90;;;;;;5115234;28;20797;-84
2021/09/05 08:16:03;;;;;;;18.63;15.40;;;19.30;99.90;;;;;;5099048;28;20362;-82
2021/09/05 08:18:30;;;;;;;27.67;15.93;;;19.50;99.90;;;;;;5115179;28;20423;-84
2021/09/05 08:20:56;;;;;;;18.90;15.13;;;19.60;99.90;;;;;;5115498;28;20403;-82
2021/09/05 08:23:22;;;;;;;18.60;14.95;;;19.40;99.90;;;;;;5098371;28;20964;-85
2021/09/05 08:25:48;;;;;;;17.90;14.13;;;19.40;99.90;;;;;;5114791;28;20402;-86
2021/09/05 08:28:13;;;;;;;18.40;14.40;;;19.60;99.90;;;;;;5115907;28;20744;-86
2021/09/05 08:30:39;;;;;;;19.85;14.20;;;19.80;99.90;;;;;;5096959;28;20391;-85
2021/09/05 08:33:05;;;;;;;19.07;13.80;;;19.90;99.90;;;;;;5099490;28;20383;-87
2021/09/05 08:35:31;;;;;;;19.15;14.38;;;20.00;99.90;;;;;;5089956;28;20943;-86
2021/09/05 08:37:57;;;;;;;29.63;15.27;;;20.00;99.90;;;;;;5075692;28;20734;-84
2021/09/05 08:40:23;;;;;;;15.77;13.25;;;20.10;99.90;;;;;;5086536;28;20398;-83
2021/09/05 08:42:51;;;;;;;15.98;12.95;;;20.20;99.90;;;;;;5115116;28;20383;-84
2021/09/05 08:45:20;;;;;;;15.65;13.65;;;20.20;99.90;;;;;;5096976;28;20373;-86
2021/09/05 08:47:46;;;;;;;16.50;13.48;;;20.20;99.90;;;;;;5095937;28;20394;-84
2021/09/05 08:50:13;;;;;;;16.90;13.07;;;20.10;99.90;;;;;;5115786;28;20370;-87
2021/09/05 08:52:39;;;;;;;15.83;12.93;;;20.10;99.90;;;;;;5099860;28;20422;-85
2021/09/05 08:55:06;;;;;;;16.27;13.60;;;20.10;99.90;;;;;;5116001;28;20374;-85
2021/09/05 08:57:32;;;;;;;17.52;13.50;;;20.30;99.90;;;;;;5113478;28;20367;-84
2021/09/05 08:59:58;;;;;;;16.33;12.67;;;20.40;99.90;;;;;;5095343;28;20452;-82
2021/09/05 09:02:23;;;;;;;18.40;12.57;;;20.60;99.90;;;;;;5113246;28;20374;-85
2021/09/05 09:04:52;;;;;;;20.83;12.43;;;20.70;99.90;;;;;;5112960;27;20465;-83
2021/09/05 09:07:18;;;;;;;17.77;12.85;;;20.80;99.90;;;;;;5095671;28;20375;-83
2021/09/05 09:10:01;;;;;;;18.40;12.65;;;21.10;99.90;;;;;;5113920;28;20385;-85
2021/09/05 09:12:42;;;;;;;16.13;12.30;;;20.90;99.90;;;;;;5114132;28;20386;-84
2021/09/05 09:15:32;;;;;;;15.48;12.60;;;20.80;99.90;;;;;;5113335;28;20375;-84
2021/09/05 09:18:03;;;;;;;16.17;12.07;;;20.60;99.90;;;;;;5114027;28;20470;-84
2021/09/05 09:20:34;;;;;;;14.32;11.30;;;20.60;99.90;;;;;;5112729;28;20410;-83
2021/09/05 09:23:11;;;;;;;15.07;11.50;;;20.70;99.90;;;;;;5113311;28;20829;-86
2021/09/05 09:25:36;;;;;;;16.55;11.95;;;20.90;99.90;;;;;;5113231;28;20371;-84
2021/09/05 09:28:30;;;;;;;14.25;11.82;;;20.80;99.90;;;;;;5113092;28;20361;-83
2021/09/05 09:31:00;;;;;;;15.75;11.57;;;21.00;99.90;;;;;;5112325;28;20383;-85
2021/09/05 09:33:28;;;;;;;15.05;12.43;;;21.10;99.90;;;;;;5112748;28;20525;-82
2021/09/05 09:36:00;;;;;;;18.42;11.35;;;20.90;99.90;;;;;;5113305;28;20942;-82
2021/09/05 09:38:26;;;;;;;15.20;11.95;;;20.90;99.90;;;;;;5106350;28;20435;-83
2021/09/05 09:41:05;;;;;;;14.68;11.00;;;21.10;99.90;;;;;;5112788;28;20406;-85
2021/09/05 09:43:31;;;;;;;12.68;11.05;;;20.90;99.90;;;;;;5092977;28;20382;-84
2021/09/05 09:46:11;;;;;;;13.63;11.02;;;20.90;99.90;;;;;;5113565;28;20790;-86
2021/09/05 09:48:43;;;;;;;14.23;10.82;;;20.70;99.90;;;;;;5095609;28;20379;-83
2021/09/05 09:51:08;;;;;;;18.73;10.73;;;20.70;99.90;;;;;;5094593;28;20522;-85
2021/09/05 09:53:36;;;;;;;17.20;11.00;;;20.70;99.90;;;;;;5115333;28;20525;-86
2021/09/05 09:56:02;;;;;;;13.95;9.68;;;20.80;99.90;;;;;;5111553;28;20381;-87
2021/09/05 09:58:28;;;;;;;16.05;10.50;;;20.90;99.90;;;;;;5095266;28;20373;-85
2021/09/05 10:00:58;;;;;;;12.43;10.30;;;20.90;99.90;;;;;;5096273;28;20399;-86
2021/09/05 10:03:25;;;;;;;13.20;9.87;;;21.00;99.90;;;;;;5091844;28;20745;-85
2021/09/05 10:05:53;;;;;;;13.63;10.10;;;21.20;99.90;;;;;;5112904;28;20378;-85
2021/09/05 10:08:19;;;;;;;13.70;9.77;;;21.30;99.90;;;;;;5093996;28;20386;-85
2021/09/05 10:10:49;;;;;;;12.77;9.73;;;21.20;99.90;;;;;;5113238;28;20374;-85
2021/09/05 10:13:15;;;;;;;12.45;9.48;;;21.20;99.90;;;;;;5116130;28;20386;-86
2021/09/05 10:15:40;;;;;;;12.10;9.87;;;21.30;99.90;;;;;;5115002;28;20377;-84
2021/09/05 10:18:09;;;;;;;52.53;12.25;;;21.30;99.90;;;;;;5114111;28;20859;-85
2021/09/05 10:20:35;;;;;;;13.57;9.60;;;21.50;99.90;;;;;;5096324;28;20486;-84
2021/09/05 10:23:04;;;;;;;13.37;9.40;;;21.40;99.90;;;;;;5113874;28;20414;-86
2021/09/05 10:25:30;;;;;;;14.27;9.95;;;21.40;99.90;;;;;;5095345;28;20378;-84
2021/09/05 10:27:56;;;;;;;13.18;9.30;;;21.30;99.90;;;;;;5113840;28;20409;-86
2021/09/05 10:30:23;;;;;;;13.02;9.50;;;21.00;99.90;;;;;;5094490;28;20402;-85
2021/09/05 10:32:52;;;;;;;14.95;9.90;;;20.80;99.90;;;;;;5092207;28;20779;-86
2021/09/05 10:35:28;;;;;;;12.30;9.73;;;20.50;99.90;;;;;;5093344;28;20471;-87
2021/09/05 10:38:09;;;;;;;12.13;9.57;;;20.40;99.90;;;;;;5092907;28;20383;-87
2021/09/05 10:41:01;;;;;;;11.48;9.25;;;20.40;99.90;;;;;;5112356;28;21128;-86
2021/09/05 10:43:53;;;;;;;12.25;8.80;;;20.40;99.90;;;;;;5113493;28;20427;-86
2021/09/05 10:46:24;;;;;;;11.70;8.60;;;20.50;99.90;;;;;;5096724;28;20390;-83
2021/09/05 10:49:05;;;;;;;10.85;8.10;;;20.70;99.90;;;;;;5093892;28;20439;-84
2021/09/05 10:51:52;;;;;;;11.10;8.40;;;20.70;99.90;;;;;;5072202;28;20495;-83
2021/09/05 10:54:27;;;;;;;11.77;9.13;;;20.60;99.90;;;;;;5099132;27;20491;-84
2021/09/05 10:56:55;;;;;;;13.13;8.75;;;20.30;99.90;;;;;;5112816;27;20492;-85
2021/09/05 10:59:22;;;;;;;13.40;9.13;;;20.30;99.90;;;;;;5133225;27;20434;-84
2021/09/05 11:01:48;;;;;;;12.00;9.60;;;20.00;99.90;;;;;;5110780;28;20394;-85
2021/09/05 11:04:16;;;;;;;12.05;10.02;;;20.10;99.90;;;;;;5114142;28;20363;-85
2021/09/05 11:07:06;;;;;;;14.40;10.23;;;20.00;99.90;;;;;;5095861;28;20386;-84
2021/09/05 11:09:31;;;;;;;15.53;11.53;;;20.10;99.90;;;;;;5094422;28;20390;-84
2021/09/05 11:12:00;;;;;;;15.43;10.57;;;20.10;99.90;;;;;;5093700;28;20428;-83
2021/09/05 11:14:34;;;;;;;17.00;10.23;;;20.10;99.90;;;;;;5093360;28;20374;-84
2021/09/05 11:17:18;;;;;;;13.38;10.40;;;20.30;99.90;;;;;;5094056;28;20422;-85
2021/09/05 11:19:47;;;;;;;17.20;11.60;;;20.60;99.90;;;;;;5092778;28;20434;-83
2021/09/05 11:22:16;;;;;;;16.42;11.90;;;20.80;99.90;;;;;;5109255;28;20375;-85
2021/09/05 11:24:42;;;;;;;16.17;11.80;;;21.10;99.90;;;;;;5092543;28;20869;-85
2021/09/05 11:27:10;;;;;;;18.30;12.00;;;21.40;99.90;;;;;;5112677;28;20877;-84
2021/09/05 11:29:38;;;;;;;15.65;11.88;;;21.40;99.90;;;;;;5077244;28;20375;-87
2021/09/05 11:32:09;;;;;;;14.30;11.70;;;21.40;99.90;;;;;;5095559;28;20379;-84
2021/09/05 11:34:36;;;;;;;13.23;11.23;;;21.60;99.90;;;;;;5111087;28;20379;-84
2021/09/05 11:37:03;;;;;;;14.87;11.90;;;21.80;99.90;;;;;;5112972;28;20363;-89
2021/09/05 11:39:29;;;;;;;15.77;11.65;;;21.80;99.90;;;;;;5095324;28;20406;-85
2021/09/05 11:42:01;;;;;;;14.43;11.10;;;22.00;99.90;;;;;;5116828;28;20374;-84
2021/09/05 11:44:35;;;;;;;13.47;11.13;;;22.20;99.90;;;;;;5111949;28;20370;-85
2021/09/05 11:47:09;;;;;;;14.32;11.63;;;22.30;99.90;;;;;;5096092;28;20470;-86
2021/09/05 11:49:45;;;;;;;16.10;12.68;;;22.60;99.90;;;;;;5096406;28;20381;-83
2021/09/05 11:52:11;;;;;;;15.60;12.47;;;22.70;99.90;;;;;;5113760;28;20398;-84
2021/09/05 11:54:37;;;;;;;15.70;12.83;;;22.70;99.90;;;;;;5098307;28;20414;-83
2021/09/05 11:57:10;;;;;;;16.95;13.20;;;22.40;99.90;;;;;;5094344;28;20371;-85
2021/09/05 11:59:39;;;;;;;17.50;13.60;;;22.20;99.90;;;;;;5095566;28;20394;-85
2021/09/05 12:02:06;;;;;;;13.88;11.80;;;21.80;99.90;;;;;;5115310;28;20359;-86
2021/09/05 12:04:34;;;;;;;14.70;11.80;;;22.00;99.90;;;;;;5118236;28;20479;-87
2021/09/05 12:07:02;;;;;;;18.17;12.38;;;22.20;99.90;;;;;;5116021;28;20404;-84
2021/09/05 12:09:29;;;;;;;19.63;13.55;;;22.30;99.90;;;;;;5092671;28;20868;-86
2021/09/05 12:11:59;;;;;;;16.55;12.65;;;22.30;99.90;;;;;;5092358;28;20756;-85
2021/09/05 12:14:33;;;;;;;15.33;12.73;;;22.40;99.90;;;;;;5110111;28;20422;-87
2021/09/05 12:17:29;;;;;;;18.88;15.00;;;22.60;99.90;;;;;;5092398;28;20383;-84
2021/09/05 12:20:03;;;;;;;43.67;15.63;;;22.80;99.90;;;;;;5108723;28;20411;-86
2021/09/05 12:22:49;;;;;;;15.20;12.50;;;22.90;99.90;;;;;;5093184;28;20406;-86
2021/09/05 12:25:22;;;;;;;17.70;13.32;;;22.90;99.90;;;;;;5111215;28;20460;-83
2021/09/05 12:27:54;;;;;;;17.50;13.40;;;22.80;99.90;;;;;;5110273;28;20383;-84
2021/09/05 12:30:28;;;;;;;17.25;13.45;;;22.70;99.90;;;;;;5111727;28;20375;-86